Gerald R. Ford International Airport
KGRR : now visible

Airfield :











YOU CAN JOIN US ON...

 
LOGIN :

Register | Disclaimer

   EN    FR    IT 

 









Legend :    VFR   Marginal VFR   IFR   Intensive IFR   Very Intensive IFR
Visi :
Ceiling :
>= 8 km
>= 3000ft
5 to 8 km
1000 to 3000 ft
1500m to 5 km
500 to 1000 ft
800 to 1500m
200 to 500 ft
< 800m
< 200 ft
Symbols :   Thunderstorms  Fog  Heavy snow  Heavy precipitations  Wind > 20 kt






- Airport Elevation : 794 ft
- IATA code : GRR


KGRR - Gerald R. Ford International

CURRENT METAR :
  • 021553Z 32009G15KT 10SM FEW060 BKN250 26/10 A3005 RMK AO2 SLP171 T02560100 $

EXPIRED METARs :
  • 021453Z 34006KT 10SM BKN250 24/11 A3003 RMK AO2 SLP166 T02390106 51010 $
  • 020253Z 29003KT 10SM FEW240 20/09 A2997 RMK AO2 SLP145 T02000089 52010 $
  • 021353Z 33006KT 10SM FEW075 BKN250 23/13 A3002 RMK AO2 SLP163 T02280133 $

TAF KGRR
Valid from the 02 at 12:00 until the 03 at 12:00 UTC


021120Z 0212/0312 24004KT P6SM SKC
FM021400 29009KT P6SM SKC
FM030000 25005KT P6SM SCT070
KZAU FIR / North America



MET'MAP, your aeronautical weather chart ! - Copyright ORBIFLY December 2007 - Disclaimer

ORBIFLY MET'MAP TEAM :

Programming & Development : Alexandra Zaïnal
Original concept : Baudouin d'Aumeries
Technical & hardware support : Manuel Goepfert
Assistance : Marc-Olivier Méhu




SOURCES & CREDITS :

   NOAA       Earth
Advisory